Página principal
METAR-TAF:

METAR-TAF

Aeroportos :

Joanesburgo, África do Sul

Aeroporto Internacional Oliver Tambo

latitude: 26-08S, longitude: 028-14E, altura: 1694 m

Observação actual do tempo

O boletim foi feito há 1 hora e 3 minutos, às 14:00 UTC
Vento 7 kt de norte, variando entre noroeste e nor-nordeste
Temperatura 24°C
Humidade 47%
Pressão 1024 hPa
Visibilidade 10 km ou mais
sem nuvens abaixo de 1500 metros e sem cumulonimbus

METAR: FAOR 161400Z 36007KT 310V030 CAVOK 24/12 Q1024 NOSIG

Hora: 17:03 (15:03 UTC)

Previsão

O boletim foi feito há 5 horas e 58 minutos, às 09:05 UTC
Previsão válida de 16 às 06 UTC a 17 às 12 UTC
Vento 14 kt de nordeste
Visibilidade 10 km ou mais
Nuvens dispersasa uma altura de 3500 ft
Tornando-se
de 16 às 10 UTC a 16 às 12 UTC
Visibilidade 10 km ou mais
sem nuvens abaixo de 1500 metros e sem cumulonimbus

TAF: FAOR 160905Z 1606/1712 05014KT 9999 SCT035 BECMG 1610/1612 CAVOK TX29/1613Z TN17/1703Z

Observações e previsões do tempo de mais de 4000 aeroportos (mensagens METAR e TAF).

As estações disponíveis são os pontos amarelos e vermelhos sobre o mapa.

Mova o rato sobre o mapa para ver o nome da estação.

Depois clique no ponto para visualizar as observações e previsões meteorológicas.

Para alterar o mapa : clique nos botões verdes com uma cruz preta para aumentar o zoom; no botão verde com uma pitada de zoom; ou nas setas verdes para mapas adjacentes.


METAR-TAF: